Terminal Aerodrome Forecast
Issued by NWS

Home | Current Version | Previous Version | Text Only | Print | Product List | Glossary On
Versions: 1 2 3 4 5 6 7 8 9 10 11 12
000
FTUS44 KLIX 212352 AAA
TAFHUM
TAF AMD
KHUM 212352Z 2200/2224 12010KT P6SM SHRA SCT020 BKN100
     FM221600 15007KT P6SM SHRA VCTS OVC020CB=

USA.gov is the U.S. government's official web portal to all federal, state and local government web resources and services.